createdAt,value
2023-04-11T00:00:15.653Z,7.40
2023-04-11T00:02:43.714Z,7.30
2023-04-11T00:05:11.728Z,7.30
2023-04-11T00:07:39.486Z,7.50
2023-04-11T00:10:07.825Z,7.40
2023-04-11T00:12:35.310Z,7.30
2023-04-11T00:15:02.792Z,7.40
2023-04-11T00:17:31.861Z,7.20
2023-04-11T00:20:01.888Z,7.10
2023-04-11T00:22:30.795Z,7.00
2023-04-11T00:24:58.467Z,7.00
2023-04-11T00:27:26.635Z,7.30
2023-04-11T00:29:56.286Z,7.10
2023-04-11T00:32:24.290Z,7.00
2023-04-11T00:34:52.051Z,6.80
2023-04-11T00:37:22.397Z,7.00
2023-04-11T00:39:53.308Z,6.90
2023-04-11T00:42:20.769Z,7.00
2023-04-11T00:44:48.044Z,6.70
2023-04-11T00:47:15.850Z,6.50
2023-04-11T00:49:43.517Z,6.30
2023-04-11T00:52:12.955Z,6.30
2023-04-11T00:54:40.709Z,6.40
2023-04-11T00:57:09.207Z,6.50
2023-04-11T00:59:37.872Z,6.50
2023-04-11T01:02:06.240Z,6.50
2023-04-11T01:04:33.935Z,6.60
2023-04-11T01:07:06.404Z,6.60
2023-04-11T01:09:36.428Z,6.60
2023-04-11T01:12:05.484Z,6.40
2023-04-11T01:14:32.802Z,6.30
2023-04-11T01:17:02.830Z,6.30
2023-04-11T01:19:31.831Z,6.40
2023-04-11T01:22:01.274Z,6.20
2023-04-11T01:24:29.990Z,6.30
2023-04-11T01:26:58.212Z,6.50
2023-04-11T01:29:25.975Z,6.40
2023-04-11T01:31:53.260Z,6.50
2023-04-11T01:34:21.795Z,6.50
2023-04-11T01:36:52.375Z,6.80
2023-04-11T01:39:19.735Z,6.50
2023-04-11T01:41:50.854Z,6.50
2023-04-11T01:44:20.970Z,6.40
2023-04-11T01:46:49.025Z,6.10
2023-04-11T01:49:18.998Z,6.00
2023-04-11T01:51:48.130Z,6.00
2023-04-11T01:54:15.688Z,6.00
2023-04-11T01:56:43.234Z,5.70
2023-04-11T01:59:10.971Z,5.90
2023-04-11T02:01:39.677Z,5.70
2023-04-11T02:04:07.212Z,5.40
2023-04-11T02:06:35.099Z,5.50
2023-04-11T02:09:02.654Z,5.30
2023-04-11T02:11:30.655Z,5.20
2023-04-11T02:13:58.166Z,5.20
2023-04-11T02:16:26.075Z,5.40
2023-04-11T02:18:54.530Z,5.60
2023-04-11T02:21:22.616Z,5.80
2023-04-11T02:23:51.457Z,5.80
2023-04-11T02:26:18.817Z,5.80
2023-04-11T02:28:46.557Z,6.00
2023-04-11T02:31:16.180Z,5.80
2023-04-11T02:33:44.683Z,5.90
2023-04-11T02:36:12.784Z,5.80
2023-04-11T02:38:40.068Z,5.80
2023-04-11T02:41:08.731Z,5.80
2023-04-11T02:43:36.290Z,5.70
2023-04-11T02:46:12.876Z,6.00
2023-04-11T02:48:44.067Z,5.60
2023-04-11T02:51:13.382Z,5.20
2023-04-11T02:53:41.369Z,5.10
2023-04-11T02:56:19.236Z,5.30
2023-04-11T02:58:52.734Z,5.00
2023-04-11T03:01:25.224Z,5.10
2023-04-11T03:03:54.686Z,5.40
2023-04-11T03:06:25.006Z,5.30
2023-04-11T03:08:57.828Z,5.50
2023-04-11T03:11:25.666Z,5.60
2023-04-11T03:13:54.293Z,5.40
2023-04-11T03:16:22.086Z,5.40
2023-04-11T03:18:49.952Z,5.50
2023-04-11T03:21:17.241Z,5.60
2023-04-11T03:23:45.860Z,5.40
2023-04-11T03:26:15.126Z,5.30
2023-04-11T03:28:44.902Z,5.50
2023-04-11T03:31:17.953Z,5.70
2023-04-11T03:33:47.155Z,5.60
2023-04-11T03:36:14.794Z,5.70
2023-04-11T03:38:43.515Z,5.70
2023-04-11T03:41:11.343Z,5.70
2023-04-11T03:43:38.667Z,5.70
2023-04-11T03:46:08.896Z,5.40
2023-04-11T03:48:40.510Z,5.20
2023-04-11T03:51:09.893Z,5.20
2023-04-11T03:53:43.459Z,5.30
2023-04-11T03:56:27.887Z,5.30
2023-04-11T03:58:55.794Z,5.20
2023-04-11T04:01:30.483Z,5.10
2023-04-11T04:04:02.591Z,5.30
2023-04-11T04:06:32.291Z,5.10
2023-04-11T04:09:04.322Z,4.80
2023-04-11T04:11:43.738Z,4.80
2023-04-11T04:14:11.456Z,4.60
2023-04-11T04:16:38.878Z,4.70
2023-04-11T04:19:08.312Z,4.90
2023-04-11T04:21:38.210Z,5.10
2023-04-11T04:24:06.326Z,5.00
2023-04-11T04:26:50.195Z,4.60
2023-04-11T04:29:38.466Z,4.50
2023-04-11T04:32:11.340Z,4.60
2023-04-11T04:34:50.006Z,4.70
2023-04-11T04:37:27.419Z,4.90
2023-04-11T04:40:21.699Z,4.80
2023-04-11T04:43:11.798Z,4.80
2023-04-11T04:45:49.285Z,4.90
2023-04-11T04:48:25.752Z,4.60
2023-04-11T04:50:53.939Z,4.90
2023-04-11T04:53:21.679Z,4.80
2023-04-11T04:55:56.895Z,4.90
2023-04-11T04:58:27.650Z,5.10
2023-04-11T05:00:56.368Z,4.90
2023-04-11T05:03:29.200Z,5.00
2023-04-11T05:05:59.803Z,5.20
2023-04-11T05:08:27.604Z,5.40
2023-04-11T05:10:58.294Z,5.50
2023-04-11T05:13:26.321Z,5.40
2023-04-11T05:15:54.377Z,5.40
2023-04-11T05:18:25.673Z,5.80
2023-04-11T05:20:53.022Z,5.90
2023-04-11T05:23:24.785Z,6.10
2023-04-11T05:25:54.205Z,6.10
2023-04-11T05:28:22.385Z,6.30
2023-04-11T05:30:49.808Z,6.30
2023-04-11T05:33:17.317Z,6.40
2023-04-11T05:35:45.406Z,6.40
2023-04-11T05:38:12.668Z,6.50
2023-04-11T05:40:40.865Z,6.70
2023-04-11T05:43:11.549Z,6.80
2023-04-11T05:45:41.552Z,6.70
2023-04-11T05:48:09.045Z,6.80
2023-04-11T05:50:37.027Z,6.90
2023-04-11T05:53:05.634Z,7.00
2023-04-11T05:55:33.284Z,6.90
2023-04-11T05:58:00.832Z,6.90
2023-04-11T06:00:33.234Z,7.10
2023-04-11T06:03:02.953Z,7.20
2023-04-11T06:05:31.837Z,7.40
2023-04-11T06:08:00.206Z,7.40
2023-04-11T06:10:29.839Z,7.60
2023-04-11T06:12:58.083Z,7.70
2023-04-11T06:15:30.634Z,7.80
2023-04-11T06:17:58.106Z,7.70
2023-04-11T06:20:25.929Z,7.90
2023-04-11T06:22:53.485Z,8.00
2023-04-11T06:25:22.168Z,8.10
2023-04-11T06:27:50.216Z,8.10
2023-04-11T06:30:18.862Z,8.30
2023-04-11T06:32:47.032Z,8.40
2023-04-11T06:35:14.357Z,8.60
2023-04-11T06:37:42.856Z,8.50
2023-04-11T06:40:10.677Z,8.70
2023-04-11T06:42:38.853Z,8.80
2023-04-11T06:45:06.885Z,8.90
2023-04-11T06:47:35.208Z,9.00
2023-04-11T06:50:05.954Z,9.10
2023-04-11T06:52:33.997Z,9.40
2023-04-11T06:55:01.926Z,9.50
2023-04-11T06:57:29.192Z,9.70
2023-04-11T06:59:56.578Z,9.80
2023-04-11T07:02:25.418Z,10.00
2023-04-11T07:04:53.555Z,10.10
2023-04-11T07:07:21.060Z,10.10
2023-04-11T07:09:48.608Z,10.20
2023-04-11T07:12:15.847Z,10.30
2023-04-11T07:14:43.794Z,10.40
2023-04-11T07:17:11.420Z,10.60
2023-04-11T07:19:38.696Z,10.80
2023-04-11T07:22:06.504Z,11.00
2023-04-11T07:24:33.939Z,11.20
2023-04-11T07:27:04.380Z,11.40
2023-04-11T07:29:32.150Z,11.70
2023-04-11T07:32:00.670Z,11.70
2023-04-11T07:34:28.260Z,11.90
2023-04-11T07:37:01.364Z,12.10
2023-04-11T07:39:29.205Z,12.20
2023-04-11T07:41:56.958Z,12.30
2023-04-11T07:44:24.712Z,12.30
2023-04-11T07:46:52.655Z,12.60
2023-04-11T07:49:20.009Z,12.80
2023-04-11T07:51:47.441Z,12.80
2023-04-11T07:54:14.679Z,13.10
2023-04-11T07:56:42.029Z,13.30
2023-04-11T07:59:09.383Z,13.50
2023-04-11T08:01:36.789Z,13.70
2023-04-11T08:04:04.687Z,13.90
2023-04-11T08:06:32.512Z,14.00
2023-04-11T08:09:01.245Z,14.00
2023-04-11T08:11:28.601Z,14.20
2023-04-11T08:13:57.433Z,14.40
2023-04-11T08:16:25.804Z,14.50
2023-04-11T08:18:53.402Z,14.60
2023-04-11T08:21:24.239Z,14.70
2023-04-11T08:23:52.041Z,14.70
2023-04-11T08:26:21.487Z,14.70
2023-04-11T08:28:49.106Z,14.70
2023-04-11T08:31:16.791Z,14.90
2023-04-11T08:33:45.584Z,15.00
2023-04-11T08:36:13.168Z,15.20
2023-04-11T08:38:41.245Z,15.10
2023-04-11T08:41:08.840Z,15.20
2023-04-11T08:43:37.893Z,15.30
2023-04-11T08:46:05.880Z,15.40
2023-04-11T08:48:34.026Z,15.50
2023-04-11T08:51:01.601Z,15.60
2023-04-11T08:53:30.652Z,15.60
2023-04-11T08:55:59.030Z,15.70
2023-04-11T08:58:26.839Z,15.90
2023-04-11T09:00:54.451Z,16.00
2023-04-11T09:03:22.687Z,16.00
2023-04-11T09:05:50.131Z,16.10
2023-04-11T09:08:18.070Z,16.00
2023-04-11T09:10:46.515Z,16.10
2023-04-11T09:13:22.270Z,16.10
2023-04-11T09:16:09.619Z,16.10
2023-04-11T09:18:39.659Z,16.00
2023-04-11T09:21:09.255Z,16.20
2023-04-11T09:23:36.904Z,16.30
2023-04-11T09:26:06.859Z,16.40
2023-04-11T09:28:44.921Z,16.60
2023-04-11T09:31:13.756Z,16.80
2023-04-11T09:33:53.645Z,16.70
2023-04-11T09:36:23.354Z,16.90
2023-04-11T09:38:51.998Z,17.00
2023-04-11T09:41:48.848Z,17.30
2023-04-11T09:44:16.461Z,17.30
2023-04-11T09:46:59.995Z,17.50
2023-04-11T09:49:28.020Z,17.60
2023-04-11T09:51:57.828Z,17.60
2023-04-11T09:54:28.062Z,17.70
2023-04-11T09:56:56.773Z,18.00
2023-04-11T09:59:27.937Z,18.10
2023-04-11T10:01:56.858Z,18.20
2023-04-11T10:04:28.234Z,18.40
2023-04-11T10:07:17.297Z,18.50
2023-04-11T10:09:46.476Z,18.70
2023-04-11T10:12:29.830Z,18.80
2023-04-11T10:14:57.267Z,18.90
2023-04-11T10:17:25.780Z,18.90
2023-04-11T10:19:58.874Z,18.90
2023-04-11T10:22:42.019Z,19.10
2023-04-11T10:25:21.357Z,19.10
2023-04-11T10:27:53.612Z,18.50
2023-04-11T10:30:40.936Z,18.60
2023-04-11T10:33:16.128Z,18.80
2023-04-11T10:36:06.083Z,18.90
2023-04-11T10:38:51.609Z,19.30
2023-04-11T10:41:23.831Z,19.50
2023-04-11T10:43:52.384Z,19.70
2023-04-11T10:46:25.038Z,19.80
2023-04-11T10:49:06.019Z,20.00
2023-04-11T10:51:34.354Z,20.10
2023-04-11T10:54:02.635Z,20.30
2023-04-11T10:56:50.818Z,20.50
2023-04-11T10:59:36.067Z,20.80
2023-04-11T11:02:04.474Z,20.80
2023-04-11T11:04:32.493Z,20.80
2023-04-11T11:07:04.844Z,21.00
2023-04-11T11:09:32.976Z,21.30
2023-04-11T11:12:11.295Z,21.30
2023-04-11T11:14:41.404Z,21.40
2023-04-11T11:17:09.323Z,21.60
2023-04-11T11:19:37.395Z,21.60
2023-04-11T11:22:06.334Z,21.50
2023-04-11T11:24:34.280Z,21.70
2023-04-11T11:27:01.702Z,21.50
2023-04-11T11:29:35.671Z,21.50
2023-04-11T11:32:04.069Z,21.50
2023-04-11T11:34:35.904Z,21.60
2023-04-11T11:37:05.476Z,21.60
2023-04-11T11:39:34.411Z,21.50
2023-04-11T11:42:02.095Z,21.30
2023-04-11T11:44:31.483Z,20.70
2023-04-11T11:47:10.264Z,20.10
2023-04-11T11:49:51.434Z,19.90
2023-04-11T11:52:40.055Z,19.70
2023-04-11T11:55:29.400Z,19.60
2023-04-11T11:58:02.987Z,19.50
2023-04-11T12:00:39.477Z,19.50
2023-04-11T12:03:13.247Z,19.60
2023-04-11T12:05:43.704Z,19.40
2023-04-11T12:08:11.149Z,19.30
2023-04-11T12:10:40.169Z,19.40
2023-04-11T12:13:22.407Z,19.60
2023-04-11T12:15:58.411Z,19.70
2023-04-11T12:18:28.332Z,19.40
2023-04-11T12:20:55.774Z,19.20
2023-04-11T12:23:23.499Z,19.30
2023-04-11T12:25:51.242Z,19.60
2023-04-11T12:28:18.821Z,19.40
2023-04-11T12:30:46.255Z,19.70
2023-04-11T12:33:13.886Z,19.80
2023-04-11T12:35:41.512Z,19.70
2023-04-11T12:38:09.258Z,19.80
2023-04-11T12:40:37.594Z,19.90
2023-04-11T12:43:05.129Z,20.10
2023-04-11T12:45:35.279Z,20.20
2023-04-11T12:48:03.566Z,20.00
2023-04-11T12:50:31.106Z,20.00
2023-04-11T12:52:58.479Z,20.10
2023-04-11T12:55:25.882Z,19.80
2023-04-11T12:57:53.767Z,19.70
2023-04-11T13:00:26.834Z,19.50
2023-04-11T13:02:57.244Z,19.60
2023-04-11T13:05:25.035Z,19.70
2023-04-11T13:07:52.450Z,19.90
2023-04-11T13:10:20.213Z,19.50
2023-04-11T13:12:48.676Z,19.50
2023-04-11T13:15:17.440Z,19.50
2023-04-11T13:17:45.809Z,19.70
2023-04-11T13:20:16.517Z,19.60
2023-04-11T13:22:44.779Z,19.70
2023-04-11T13:25:12.623Z,19.40
2023-04-11T13:27:41.891Z,19.30
2023-04-11T13:30:10.786Z,19.50
2023-04-11T13:32:38.502Z,19.40
2023-04-11T13:35:07.306Z,19.30
2023-04-11T13:37:36.016Z,19.30
2023-04-11T13:40:06.407Z,19.20
2023-04-11T13:42:34.037Z,19.20
2023-04-11T13:45:01.890Z,19.00
2023-04-11T13:47:29.339Z,19.00
2023-04-11T13:49:57.151Z,19.10
2023-04-11T13:52:24.488Z,19.40
2023-04-11T13:54:52.024Z,19.50
2023-04-11T13:57:20.067Z,19.70
2023-04-11T13:59:47.377Z,19.60
2023-04-11T14:02:16.030Z,19.50
2023-04-11T14:04:44.031Z,19.50
2023-04-11T14:07:11.363Z,19.60
2023-04-11T14:09:38.735Z,19.70
2023-04-11T14:12:06.277Z,19.60
2023-04-11T14:14:34.065Z,19.50
2023-04-11T14:17:01.835Z,19.50
2023-04-11T14:19:29.180Z,19.30
2023-04-11T14:21:58.005Z,19.20
2023-04-11T14:24:25.407Z,19.20
2023-04-11T14:26:53.186Z,19.20
2023-04-11T14:29:22.412Z,19.20
2023-04-11T14:31:50.892Z,19.30
2023-04-11T14:34:18.782Z,19.50
2023-04-11T14:36:46.042Z,19.30
2023-04-11T14:39:13.363Z,19.30
2023-04-11T14:41:41.218Z,19.40
2023-04-11T14:44:08.527Z,19.30
2023-04-11T14:46:37.785Z,19.40
2023-04-11T14:49:06.119Z,19.20
2023-04-11T14:51:34.347Z,19.30
2023-04-11T14:54:01.866Z,19.40
2023-04-11T14:56:29.442Z,19.00
2023-04-11T14:58:58.624Z,19.10
2023-04-11T15:01:27.307Z,19.20
2023-04-11T15:03:55.084Z,19.00
2023-04-11T15:06:22.511Z,19.10
2023-04-11T15:08:50.510Z,19.30
2023-04-11T15:11:18.454Z,19.50
2023-04-11T15:13:48.363Z,19.40
2023-04-11T15:16:18.797Z,19.30
2023-04-11T15:18:47.673Z,19.50
2023-04-11T15:21:16.018Z,19.40
2023-04-11T15:23:45.050Z,19.50
2023-04-11T15:26:12.432Z,19.20
2023-04-11T15:28:40.192Z,19.30
2023-04-11T15:31:09.662Z,19.60
2023-04-11T15:33:38.429Z,19.80
2023-04-11T15:36:06.503Z,20.00
2023-04-11T15:38:36.768Z,19.90
2023-04-11T15:41:04.473Z,19.80
2023-04-11T15:43:32.562Z,19.80
2023-04-11T15:46:03.617Z,20.10
2023-04-11T15:48:31.063Z,20.00
2023-04-11T15:50:59.010Z,19.50
2023-04-11T15:53:26.712Z,19.70
2023-04-11T15:55:54.646Z,19.60
2023-04-11T15:58:21.928Z,19.40
2023-04-11T16:00:49.356Z,19.40
2023-04-11T16:03:18.281Z,19.40
2023-04-11T16:05:45.860Z,19.20
2023-04-11T16:08:13.772Z,19.40
2023-04-11T16:10:41.505Z,19.20
2023-04-11T16:13:09.478Z,19.00
2023-04-11T16:15:38.929Z,19.00
2023-04-11T16:18:13.099Z,19.50
2023-04-11T16:20:40.621Z,19.90
2023-04-11T16:23:08.205Z,20.10
2023-04-11T16:25:36.316Z,20.50
2023-04-11T16:28:03.793Z,20.80
2023-04-11T16:30:33.445Z,20.90
2023-04-11T16:33:01.660Z,20.50
2023-04-11T16:35:28.941Z,20.10
2023-04-11T16:37:56.867Z,20.10
2023-04-11T16:40:24.539Z,19.20
2023-04-11T16:43:20.400Z,18.80
2023-04-11T16:46:15.778Z,18.00
2023-04-11T16:48:49.292Z,17.90
2023-04-11T16:51:40.175Z,17.60
2023-04-11T16:54:11.037Z,17.50
2023-04-11T16:56:38.431Z,17.30
2023-04-11T16:59:05.868Z,17.20
2023-04-11T17:01:33.389Z,17.30
2023-04-11T17:04:01.581Z,17.00
2023-04-11T17:06:29.192Z,16.90
2023-04-11T17:08:57.842Z,16.70
2023-04-11T17:11:25.408Z,16.70
2023-04-11T17:13:55.269Z,16.70
2023-04-11T17:16:23.015Z,16.60
2023-04-11T17:18:50.393Z,16.40
2023-04-11T17:21:18.378Z,16.30
2023-04-11T17:23:47.701Z,16.20
2023-04-11T17:26:16.979Z,16.20
2023-04-11T17:28:45.764Z,16.20
2023-04-11T17:31:14.086Z,16.20
2023-04-11T17:33:42.758Z,16.00
2023-04-11T17:36:43.617Z,15.90
2023-04-11T17:39:56.797Z,15.80
2023-04-11T17:42:26.810Z,15.80
2023-04-11T17:44:55.850Z,15.70
2023-04-11T17:47:26.958Z,15.70
2023-04-11T17:49:55.068Z,15.50
2023-04-11T17:52:23.697Z,15.50
2023-04-11T17:54:51.530Z,15.40
2023-04-11T17:57:18.834Z,15.40
2023-04-11T17:59:47.324Z,15.40
2023-04-11T18:02:15.240Z,15.40
2023-04-11T18:04:42.676Z,15.40
2023-04-11T18:07:10.068Z,15.30
2023-04-11T18:09:38.103Z,15.30
2023-04-11T18:12:05.433Z,15.20
2023-04-11T18:14:34.330Z,15.30
2023-04-11T18:17:02.026Z,15.30
2023-04-11T18:19:29.695Z,15.20
2023-04-11T18:21:57.432Z,15.10
2023-04-11T18:24:24.796Z,15.00
2023-04-11T18:26:52.840Z,15.10
2023-04-11T18:29:20.124Z,15.20
2023-04-11T18:31:47.464Z,15.00
2023-04-11T18:34:15.121Z,15.00
2023-04-11T18:36:43.388Z,14.90
2023-04-11T18:39:11.664Z,14.80
2023-04-11T18:41:39.562Z,14.80
2023-04-11T18:44:09.533Z,14.90
2023-04-11T18:46:37.835Z,15.00
2023-04-11T18:49:06.129Z,15.00
2023-04-11T18:51:35.915Z,15.00
2023-04-11T18:54:04.157Z,14.90
2023-04-11T18:56:33.387Z,14.90
2023-04-11T18:59:06.581Z,14.90
2023-04-11T19:01:35.593Z,14.80
2023-04-11T19:04:03.545Z,14.90
2023-04-11T19:06:31.362Z,14.80
2023-04-11T19:08:58.979Z,14.80
2023-04-11T19:11:26.397Z,14.80
2023-04-11T19:13:55.488Z,14.70
2023-04-11T19:16:22.913Z,14.60
2023-04-11T19:18:51.689Z,14.50
2023-04-11T19:21:18.929Z,14.50
2023-04-11T19:23:46.260Z,14.50
2023-04-11T19:26:15.070Z,14.40
2023-04-11T19:28:42.553Z,14.30
2023-04-11T19:31:10.129Z,14.30
2023-04-11T19:33:39.362Z,14.20
2023-04-11T19:36:06.842Z,14.10
2023-04-11T19:38:35.116Z,14.10
2023-04-11T19:41:19.803Z,14.10
2023-04-11T19:43:50.021Z,14.10
2023-04-11T19:46:18.465Z,14.20
2023-04-11T19:48:47.094Z,14.10
2023-04-11T19:51:15.479Z,14.20
2023-04-11T19:53:44.401Z,14.20
2023-04-11T19:56:12.099Z,14.20
2023-04-11T19:58:40.062Z,14.20
2023-04-11T20:01:08.464Z,14.20
2023-04-11T20:03:36.234Z,14.10
2023-04-11T20:06:05.749Z,14.10
2023-04-11T20:08:37.234Z,14.00
2023-04-11T20:11:06.163Z,14.00
2023-04-11T20:13:37.236Z,13.70
2023-04-11T20:16:08.606Z,13.70
2023-04-11T20:18:37.208Z,13.70
2023-04-11T20:21:06.597Z,13.40
2023-04-11T20:23:35.653Z,13.20
2023-04-11T20:26:02.914Z,13.30
2023-04-11T20:28:30.701Z,13.10
2023-04-11T20:30:59.592Z,13.20
2023-04-11T20:33:27.588Z,13.30
2023-04-11T20:35:57.397Z,13.20
2023-04-11T20:38:26.468Z,13.10
2023-04-11T20:40:53.680Z,13.00
2023-04-11T20:43:21.034Z,13.10
2023-04-11T20:45:48.300Z,13.10
2023-04-11T20:48:16.702Z,13.20
2023-04-11T20:50:47.366Z,13.20
2023-04-11T20:53:14.791Z,13.20
2023-04-11T20:55:42.125Z,13.30
2023-04-11T20:58:11.243Z,13.10
2023-04-11T21:00:42.982Z,13.20
2023-04-11T21:03:10.338Z,13.20
2023-04-11T21:05:38.766Z,13.10
2023-04-11T21:08:06.767Z,13.10
2023-04-11T21:10:34.030Z,13.20
2023-04-11T21:13:01.674Z,13.20
2023-04-11T21:15:32.403Z,13.20
2023-04-11T21:17:59.949Z,13.30
2023-04-11T21:20:27.318Z,13.30
2023-04-11T21:22:54.926Z,13.40
2023-04-11T21:25:23.782Z,13.30
2023-04-11T21:27:51.355Z,13.40
2023-04-11T21:30:22.999Z,13.40
2023-04-11T21:32:52.632Z,13.40
2023-04-11T21:35:20.035Z,13.30
2023-04-11T21:37:49.246Z,13.30
2023-04-11T21:40:17.643Z,13.30
2023-04-11T21:42:46.867Z,13.20
2023-04-11T21:45:16.215Z,13.10
2023-04-11T21:47:43.991Z,13.10
2023-04-11T21:50:11.631Z,13.10
2023-04-11T21:52:39.249Z,13.10
2023-04-11T21:55:09.093Z,12.90
2023-04-11T21:57:37.616Z,12.80
2023-04-11T22:00:06.467Z,12.60
2023-04-11T22:02:40.118Z,12.50
2023-04-11T22:05:09.616Z,12.60
2023-04-11T22:07:49.253Z,12.60
2023-04-11T22:10:23.332Z,12.40
2023-04-11T22:12:54.039Z,12.40
2023-04-11T22:15:27.613Z,12.50
2023-04-11T22:17:56.785Z,12.40
2023-04-11T22:20:24.211Z,12.30
2023-04-11T22:22:51.516Z,12.20
2023-04-11T22:25:22.581Z,12.20
2023-04-11T22:27:50.091Z,12.20
2023-04-11T22:30:20.233Z,12.10
2023-04-11T22:32:51.371Z,12.00
2023-04-11T22:35:19.190Z,11.90
2023-04-11T22:37:47.216Z,11.90
2023-04-11T22:40:18.092Z,11.80
2023-04-11T22:42:47.104Z,11.70
2023-04-11T22:45:14.481Z,11.70
2023-04-11T22:47:45.978Z,11.50
2023-04-11T22:50:17.981Z,11.30
2023-04-11T22:52:46.271Z,11.20
2023-04-11T22:55:16.246Z,11.10
2023-04-11T22:57:43.518Z,11.20
2023-04-11T23:00:12.694Z,11.20
2023-04-11T23:02:40.142Z,11.20
2023-04-11T23:05:08.789Z,11.30
2023-04-11T23:07:36.378Z,11.20
2023-04-11T23:10:06.196Z,11.30
2023-04-11T23:12:34.021Z,11.20
2023-04-11T23:15:03.176Z,11.20
2023-04-11T23:17:30.722Z,10.90
2023-04-11T23:19:59.678Z,10.70
2023-04-11T23:22:27.795Z,10.60
2023-04-11T23:25:06.962Z,10.70
2023-04-11T23:27:34.361Z,10.80
2023-04-11T23:30:01.982Z,10.80
2023-04-11T23:32:29.778Z,10.90
2023-04-11T23:34:57.905Z,11.00
2023-04-11T23:37:27.670Z,11.00
2023-04-11T23:39:55.063Z,11.00
2023-04-11T23:42:22.833Z,10.90
2023-04-11T23:44:50.955Z,10.80
2023-04-11T23:47:18.248Z,10.80
2023-04-11T23:49:46.021Z,10.90
2023-04-11T23:52:14.216Z,10.60
2023-04-11T23:54:41.823Z,10.70
2023-04-11T23:57:09.423Z,10.60
2023-04-11T23:59:37.104Z,10.50
